sensor_id;sensor_type;location;lat;lon;timestamp;pressure;altitude;pressure_sealevel;temperature;humidity
62150;BME280;48134;53.586;10.610;2022-07-10T00:00:15;101500.97;;;11.92;100.00
62150;BME280;48134;53.586;10.610;2022-07-10T00:02:52;101502.66;;;12.03;100.00
62150;BME280;48134;53.586;10.610;2022-07-10T00:05:21;101507.53;;;12.01;100.00
62150;BME280;48134;53.586;10.610;2022-07-10T00:07:54;101500.19;;;12.02;100.00
62150;BME280;48134;53.586;10.610;2022-07-10T00:10:28;101492.81;;;12.02;100.00
62150;BME280;48134;53.586;10.610;2022-07-10T00:12:57;101493.38;;;12.04;100.00
62150;BME280;48134;53.586;10.610;2022-07-10T00:15:32;101504.81;;;11.96;100.00
62150;BME280;48134;53.586;10.610;2022-07-10T00:18:05;101503.72;;;11.97;100.00
62150;BME280;48134;53.586;10.610;2022-07-10T00:20:38;101494.16;;;12.00;100.00
62150;BME280;48134;53.586;10.610;2022-07-10T00:23:12;101504.75;;;11.86;100.00
62150;BME280;48134;53.586;10.610;2022-07-10T00:25:45;101505.84;;;11.90;100.00
62150;BME280;48134;53.586;10.610;2022-07-10T00:28:18;101499.56;;;11.84;100.00
62150;BME280;48134;53.586;10.610;2022-07-10T00:30:52;101499.59;;;11.89;100.00
62150;BME280;48134;53.586;10.610;2022-07-10T00:33:25;101500.38;;;11.90;100.00
62150;BME280;48134;53.586;10.610;2022-07-10T00:35:59;101500.66;;;11.88;100.00
62150;BME280;48134;53.586;10.610;2022-07-10T00:38:33;101507.22;;;11.93;100.00
62150;BME280;48134;53.586;10.610;2022-07-10T00:41:01;101493.84;;;11.86;100.00
62150;BME280;48134;53.586;10.610;2022-07-10T00:43:52;101497.66;;;11.80;100.00
62150;BME280;48134;53.586;10.610;2022-07-10T00:46:28;101496.03;;;11.84;100.00
62150;BME280;48134;53.586;10.610;2022-07-10T00:49:01;101495.19;;;11.83;100.00
62150;BME280;48134;53.586;10.610;2022-07-10T00:51:34;101479.94;;;11.82;100.00
62150;BME280;48134;53.586;10.610;2022-07-10T00:54:08;101484.56;;;11.87;100.00
62150;BME280;48134;53.586;10.610;2022-07-10T00:56:41;101489.47;;;11.90;100.00
62150;BME280;48134;53.586;10.610;2022-07-10T00:59:15;101488.66;;;11.89;100.00
62150;BME280;48134;53.586;10.610;2022-07-10T01:01:50;101491.41;;;11.89;100.00
62150;BME280;48134;53.586;10.610;2022-07-10T01:04:18;101478.31;;;11.86;100.00
62150;BME280;48134;53.586;10.610;2022-07-10T01:06:52;101481.84;;;11.87;100.00
62150;BME280;48134;53.586;10.610;2022-07-10T01:09:25;101487.59;;;11.96;100.00
62150;BME280;48134;53.586;10.610;2022-07-10T01:11:55;101481.59;;;11.94;100.00
62150;BME280;48134;53.586;10.610;2022-07-10T01:14:24;101480.53;;;11.95;100.00
62150;BME280;48134;53.586;10.610;2022-07-10T01:16:59;101478.34;;;11.97;100.00
62150;BME280;48134;53.586;10.610;2022-07-10T01:19:32;101471.22;;;11.90;100.00
62150;BME280;48134;53.586;10.610;2022-07-10T01:22:07;101479.72;;;11.99;100.00
62150;BME280;48134;53.586;10.610;2022-07-10T01:24:35;101478.34;;;11.97;100.00
62150;BME280;48134;53.586;10.610;2022-07-10T01:27:08;101464.19;;;11.95;100.00
62150;BME280;48134;53.586;10.610;2022-07-10T01:29:42;101460.91;;;11.98;100.00
62150;BME280;48134;53.586;10.610;2022-07-10T01:32:16;101464.72;;;12.02;100.00
62150;BME280;48134;53.586;10.610;2022-07-10T01:34:49;101458.69;;;12.00;100.00
62150;BME280;48134;53.586;10.610;2022-07-10T01:37:23;101459.53;;;12.00;100.00
62150;BME280;48134;53.586;10.610;2022-07-10T01:39:56;101457.06;;;12.04;100.00
62150;BME280;48134;53.586;10.610;2022-07-10T01:42:25;101454.63;;;12.02;100.00
62150;BME280;48134;53.586;10.610;2022-07-10T01:44:58;101460.38;;;12.11;100.00
62150;BME280;48134;53.586;10.610;2022-07-10T01:47:31;101449.47;;;12.11;100.00
62150;BME280;48134;53.586;10.610;2022-07-10T01:50:05;101450.53;;;12.05;100.00
62150;BME280;48134;53.586;10.610;2022-07-10T01:52:40;101443.44;;;11.99;100.00
62150;BME280;48134;53.586;10.610;2022-07-10T01:55:13;101446.72;;;12.06;100.00
62150;BME280;48134;53.586;10.610;2022-07-10T01:57:41;101444.81;;;12.06;100.00
62150;BME280;48134;53.586;10.610;2022-07-10T02:00:14;101431.16;;;12.01;100.00
62150;BME280;48134;53.586;10.610;2022-07-10T02:02:43;101432.81;;;12.07;100.00
62150;BME280;48134;53.586;10.610;2022-07-10T02:05:37;101436.63;;;12.06;100.00
62150;BME280;48134;53.586;10.610;2022-07-10T02:08:10;101424.34;;;12.04;100.00
62150;BME280;48134;53.586;10.610;2022-07-10T02:10:44;101430.63;;;12.10;100.00
62150;BME280;48134;53.586;10.610;2022-07-10T02:13:18;101437.44;;;12.12;100.00
62150;BME280;48134;53.586;10.610;2022-07-10T02:15:52;101438.81;;;12.10;100.00
62150;BME280;48134;53.586;10.610;2022-07-10T02:18:25;101432.81;;;12.13;100.00
62150;BME280;48134;53.586;10.610;2022-07-10T02:20:54;101435.53;;;12.23;100.00
62150;BME280;48134;53.586;10.610;2022-07-10T02:23:28;101437.44;;;12.17;100.00
62150;BME280;48134;53.586;10.610;2022-07-10T02:26:02;101427.63;;;12.21;100.00
62150;BME280;48134;53.586;10.610;2022-07-10T02:28:35;101433.38;;;12.20;100.00
62150;BME280;48134;53.586;10.610;2022-07-10T02:31:08;101428.16;;;12.23;100.00
62150;BME280;48134;53.586;10.610;2022-07-10T02:33:41;101433.09;;;12.21;100.00
62150;BME280;48134;53.586;10.610;2022-07-10T02:36:09;101423.81;;;12.22;100.00
62150;BME280;48134;53.586;10.610;2022-07-10T02:38:44;101426.53;;;12.22;100.00
62150;BME280;48134;53.586;10.610;2022-07-10T02:41:17;101426.53;;;12.22;100.00
62150;BME280;48134;53.586;10.610;2022-07-10T02:43:50;101426.53;;;12.17;100.00
62150;BME280;48134;53.586;10.610;2022-07-10T02:46:24;101428.16;;;12.23;100.00
62150;BME280;48134;53.586;10.610;2022-07-10T02:48:57;101391.06;;;11.97;100.00
62150;BME280;48134;53.586;10.610;2022-07-10T02:51:30;101440.44;;;12.26;100.00
62150;BME280;48134;53.586;10.610;2022-07-10T02:54:04;101416.19;;;12.19;100.00
62150;BME280;48134;53.586;10.610;2022-07-10T02:56:39;101430.91;;;12.23;100.00
62150;BME280;48134;53.586;10.610;2022-07-10T02:59:12;101440.47;;;12.31;100.00
62150;BME280;48134;53.586;10.610;2022-07-10T03:01:45;101435.81;;;12.27;100.00
62150;BME280;48134;53.586;10.610;2022-07-10T03:04:18;101432.28;;;12.21;100.00
62150;BME280;48134;53.586;10.610;2022-07-10T03:06:52;101436.09;;;12.25;100.00
62150;BME280;48134;53.586;10.610;2022-07-10T03:09:26;101430.09;;;12.28;100.00
62150;BME280;48134;53.586;10.610;2022-07-10T03:12:00;101436.91;;;12.31;100.00
62150;BME280;48134;53.586;10.610;2022-07-10T03:14:28;101434.44;;;12.34;100.00
62150;BME280;48134;53.586;10.610;2022-07-10T03:17:02;101433.38;;;12.35;100.00
62150;BME280;48134;53.586;10.610;2022-07-10T03:19:35;101429.00;;;12.34;100.00
62150;BME280;48134;53.586;10.610;2022-07-10T03:22:08;101414.28;;;12.25;100.00
62150;BME280;48134;53.586;10.610;2022-07-10T03:24:38;101435.81;;;12.32;100.00
62150;BME280;48134;53.586;10.610;2022-07-10T03:27:06;101428.19;;;12.34;100.00
62150;BME280;48134;53.586;10.610;2022-07-10T03:29:34;101433.38;;;12.35;100.00
62150;BME280;48134;53.586;10.610;2022-07-10T03:32:08;101433.63;;;12.29;100.00
62150;BME280;48134;53.586;10.610;2022-07-10T03:34:36;101431.19;;;12.32;100.00
62150;BME280;48134;53.586;10.610;2022-07-10T03:37:04;101430.63;;;12.30;100.00
62150;BME280;48134;53.586;10.610;2022-07-10T03:39:39;101432.00;;;12.33;100.00
62150;BME280;48134;53.586;10.610;2022-07-10T03:42:13;101423.53;;;12.24;100.00
62150;BME280;48134;53.586;10.610;2022-07-10T03:44:41;101416.72;;;12.27;100.00
62150;BME280;48134;53.586;10.610;2022-07-10T03:47:14;101425.72;;;12.32;100.00
62150;BME280;48134;53.586;10.610;2022-07-10T03:49:42;101429.00;;;12.39;100.00
62150;BME280;48134;53.586;10.610;2022-07-10T03:52:16;101430.34;;;12.32;100.00
62150;BME280;48134;53.586;10.610;2022-07-10T03:54:50;101431.72;;;12.34;100.00
62150;BME280;48134;53.586;10.610;2022-07-10T03:57:23;101441.00;;;12.38;100.00
62150;BME280;48134;53.586;10.610;2022-07-10T04:00:14;101437.47;;;12.38;100.00
62150;BME280;48134;53.586;10.610;2022-07-10T04:02:47;101427.34;;;12.44;100.00
62150;BME280;48134;53.586;10.610;2022-07-10T04:05:21;101420.00;;;12.39;100.00
62150;BME280;48134;53.586;10.610;2022-07-10T04:07:55;101428.16;;;12.44;100.00
62150;BME280;48134;53.586;10.610;2022-07-10T04:10:31;101421.88;;;12.38;100.00
62150;BME280;48134;53.586;10.610;2022-07-10T04:12:59;101419.72;;;12.40;100.00
62150;BME280;48134;53.586;10.610;2022-07-10T04:15:28;101426.25;;;12.39;100.00
62150;BME280;48134;53.586;10.610;2022-07-10T04:18:01;101419.72;;;12.40;100.00
62150;BME280;48134;53.586;10.610;2022-07-10T04:20:34;101400.59;;;12.35;100.00
62150;BME280;48134;53.586;10.610;2022-07-10T04:23:07;101414.50;;;12.44;100.00
62150;BME280;48134;53.586;10.610;2022-07-10T04:25:37;101413.72;;;12.44;100.00
62150;BME280;48134;53.586;10.610;2022-07-10T04:28:10;101404.16;;;12.36;100.00
62150;BME280;48134;53.586;10.610;2022-07-10T04:30:43;101412.63;;;12.45;100.00
62150;BME280;48134;53.586;10.610;2022-07-10T04:33:16;101407.16;;;12.50;100.00
62150;BME280;48134;53.586;10.610;2022-07-10T04:35:50;101410.69;;;12.50;100.00
62150;BME280;48134;53.586;10.610;2022-07-10T04:38:23;101415.84;;;12.62;100.00
62150;BME280;48134;53.586;10.610;2022-07-10T04:40:57;101409.03;;;12.65;100.00
62150;BME280;48134;53.586;10.610;2022-07-10T04:43:31;101414.78;;;12.68;100.00
62150;BME280;48134;53.586;10.610;2022-07-10T04:46:04;101411.22;;;12.68;100.00
62150;BME280;48134;53.586;10.610;2022-07-10T04:48:38;101409.59;;;12.62;100.00
62150;BME280;48134;53.586;10.610;2022-07-10T04:51:11;101375.22;;;12.40;100.00
62150;BME280;48134;53.586;10.610;2022-07-10T04:53:39;101411.50;;;12.61;100.00
62150;BME280;48134;53.586;10.610;2022-07-10T04:56:09;101415.56;;;12.69;100.00
62150;BME280;48134;53.586;10.610;2022-07-10T04:58:42;101413.69;;;12.59;100.00
62150;BME280;48134;53.586;10.610;2022-07-10T05:01:11;101413.16;;;12.57;100.00
62150;BME280;48134;53.586;10.610;2022-07-10T05:03:44;101422.16;;;12.68;100.00
62150;BME280;48134;53.586;10.610;2022-07-10T05:06:12;101421.59;;;12.61;100.00
62150;BME280;48134;53.586;10.610;2022-07-10T05:08:45;101419.16;;;12.64;100.00
62150;BME280;48134;53.586;10.610;2022-07-10T05:11:20;101418.06;;;12.65;100.00
62150;BME280;48134;53.586;10.610;2022-07-10T05:13:53;101416.94;;;12.71;100.00
62150;BME280;48134;53.586;10.610;2022-07-10T05:16:26;101414.16;;;12.97;100.00
62150;BME280;48134;53.586;10.610;2022-07-10T05:19:00;101417.25;;;13.51;100.00
62150;BME280;48134;53.586;10.610;2022-07-10T05:21:33;101415.38;;;13.31;100.00
62150;BME280;48134;53.586;10.610;2022-07-10T05:24:01;101417.59;;;13.29;100.00
62150;BME280;48134;53.586;10.610;2022-07-10T05:26:30;101405.31;;;13.26;100.00
62150;BME280;48134;53.586;10.610;2022-07-10T05:28:59;101423.22;;;13.58;100.00
62150;BME280;48134;53.586;10.610;2022-07-10T05:31:32;101411.03;;;14.19;100.00
62150;BME280;48134;53.586;10.610;2022-07-10T05:34:05;101405.09;;;16.33;100.00
62150;BME280;48134;53.586;10.610;2022-07-10T05:36:39;101407.78;;;16.99;100.00
62150;BME280;48134;53.586;10.610;2022-07-10T05:39:12;101404.59;;;15.79;100.00
62150;BME280;48134;53.586;10.610;2022-07-10T05:41:41;101410.16;;;14.88;100.00
62150;BME280;48134;53.586;10.610;2022-07-10T05:44:10;101407.91;;;14.36;100.00
62150;BME280;48134;53.586;10.610;2022-07-10T05:46:43;101420.69;;;14.46;100.00
62150;BME280;48134;53.586;10.610;2022-07-10T05:49:11;101419.06;;;14.40;100.00
62150;BME280;48134;53.586;10.610;2022-07-10T05:51:44;101417.28;;;14.25;100.00
62150;BME280;48134;53.586;10.610;2022-07-10T05:54:17;101426.03;;;14.27;100.00
62150;BME280;48134;53.586;10.610;2022-07-10T05:56:52;101416.59;;;14.09;100.00
62150;BME280;48134;53.586;10.610;2022-07-10T05:59:25;101411.94;;;14.09;100.00
62150;BME280;48134;53.586;10.610;2022-07-10T06:01:58;101418.91;;;13.91;100.00
62150;BME280;48134;53.586;10.610;2022-07-10T06:04:31;101376.75;;;13.98;100.00
62150;BME280;48134;53.586;10.610;2022-07-10T06:07:05;101414.00;;;14.28;100.00
62150;BME280;48134;53.586;10.610;2022-07-10T06:09:38;101421.19;;;14.77;100.00
62150;BME280;48134;53.586;10.610;2022-07-10T06:12:13;101411.41;;;15.20;100.00
62150;BME280;48134;53.586;10.610;2022-07-10T06:14:47;101408.97;;;14.94;100.00
62150;BME280;48134;53.586;10.610;2022-07-10T06:17:20;101413.53;;;14.50;100.00
62150;BME280;48134;53.586;10.610;2022-07-10T06:19:53;101408.50;;;14.62;100.00
62150;BME280;48134;53.586;10.610;2022-07-10T06:22:26;101405.81;;;14.82;100.00
62150;BME280;48134;53.586;10.610;2022-07-10T06:25:07;101418.47;;;14.77;100.00
62150;BME280;48134;53.586;10.610;2022-07-10T06:27:37;101410.16;;;14.58;100.00
62150;BME280;48134;53.586;10.610;2022-07-10T06:30:11;101412.97;;;14.77;100.00
62150;BME280;48134;53.586;10.610;2022-07-10T06:32:39;101383.91;;;14.82;100.00
62150;BME280;48134;53.586;10.610;2022-07-10T06:35:12;101395.28;;;14.94;100.00
62150;BME280;48134;53.586;10.610;2022-07-10T06:37:45;101401.50;;;15.00;100.00
62150;BME280;48134;53.586;10.610;2022-07-10T06:40:20;101394.97;;;14.95;100.00
62150;BME280;48134;53.586;10.610;2022-07-10T06:42:49;101395.91;;;15.10;100.00
62150;BME280;48134;53.586;10.610;2022-07-10T06:45:24;101417.78;;;14.61;100.00
62150;BME280;48134;53.586;10.610;2022-07-10T06:47:58;101404.75;;;14.77;100.00
62150;BME280;48134;53.586;10.610;2022-07-10T06:50:31;101406.88;;;15.10;100.00
62150;BME280;48134;53.586;10.610;2022-07-10T06:53:01;101416.47;;;14.54;100.00
62150;BME280;48134;53.586;10.610;2022-07-10T06:55:31;101408.25;;;14.24;100.00
62150;BME280;48134;53.586;10.610;2022-07-10T06:58:01;101419.56;;;14.47;100.00
62150;BME280;48134;53.586;10.610;2022-07-10T07:00:29;101413.28;;;14.46;100.00
62150;BME280;48134;53.586;10.610;2022-07-10T07:03:03;101406.47;;;14.39;100.00
62150;BME280;48134;53.586;10.610;2022-07-10T07:05:31;101419.06;;;14.40;100.00
62150;BME280;48134;53.586;10.610;2022-07-10T07:08:07;101416.13;;;14.36;100.00
62150;BME280;48134;53.586;10.610;2022-07-10T07:10:40;101408.56;;;14.23;100.00
62150;BME280;48134;53.586;10.610;2022-07-10T07:13:15;101414.53;;;14.25;100.00
62150;BME280;48134;53.586;10.610;2022-07-10T07:15:43;101406.56;;;13.99;100.00
62150;BME280;48134;53.586;10.610;2022-07-10T07:18:22;101418.78;;;14.07;100.00
62150;BME280;48134;53.586;10.610;2022-07-10T07:21:04;101426.19;;;14.06;100.00
62150;BME280;48134;53.586;10.610;2022-07-10T07:23:54;101426.19;;;14.06;100.00
62150;BME280;48134;53.586;10.610;2022-07-10T07:26:23;101428.53;;;14.23;100.00
62150;BME280;48134;53.586;10.610;2022-07-10T07:28:57;101424.94;;;14.28;100.00
62150;BME280;48134;53.586;10.610;2022-07-10T07:31:25;101424.25;;;14.41;100.00
62150;BME280;48134;53.586;10.610;2022-07-10T07:33:59;101424.38;;;14.31;100.00
62150;BME280;48134;53.586;10.610;2022-07-10T07:36:27;101436.34;;;14.40;100.00
62150;BME280;48134;53.586;10.610;2022-07-10T07:39:00;101419.69;;;14.32;100.00
62150;BME280;48134;53.586;10.610;2022-07-10T07:41:28;101432.81;;;14.35;100.00
62150;BME280;48134;53.586;10.610;2022-07-10T07:44:03;101426.53;;;14.34;100.00
62150;BME280;48134;53.586;10.610;2022-07-10T07:46:36;101430.34;;;14.68;100.00
62150;BME280;48134;53.586;10.610;2022-07-10T07:49:09;101409.81;;;14.94;100.00
62150;BME280;48134;53.586;10.610;2022-07-10T07:51:38;101434.28;;;15.10;100.00
62150;BME280;48134;53.586;10.610;2022-07-10T07:54:06;101420.16;;;15.22;100.00
62150;BME280;48134;53.586;10.610;2022-07-10T07:56:34;101423.69;;;15.27;100.00
62150;BME280;48134;53.586;10.610;2022-07-10T07:59:08;101406.28;;;15.13;100.00
62150;BME280;48134;53.586;10.610;2022-07-10T08:01:42;101412.81;;;15.17;100.00
62150;BME280;48134;53.586;10.610;2022-07-10T08:04:15;101419.75;;;15.34;100.00
62150;BME280;48134;53.586;10.610;2022-07-10T08:06:49;101408.69;;;15.20;100.00
62150;BME280;48134;53.586;10.610;2022-07-10T08:09:23;101407.25;;;15.65;100.00
62150;BME280;48134;53.586;10.610;2022-07-10T08:11:57;101406.34;;;16.08;100.00
62150;BME280;48134;53.586;10.610;2022-07-10T08:14:26;101393.84;;;15.83;100.00
62150;BME280;48134;53.586;10.610;2022-07-10T08:16:59;101404.75;;;15.88;100.00
62150;BME280;48134;53.586;10.610;2022-07-10T08:19:32;101398.88;;;15.95;100.00
62150;BME280;48134;53.586;10.610;2022-07-10T08:22:01;101393.94;;;16.44;100.00
62150;BME280;48134;53.586;10.610;2022-07-10T08:24:34;101395.06;;;16.43;100.00
62150;BME280;48134;53.586;10.610;2022-07-10T08:27:08;101397.75;;;15.96;100.00
62150;BME280;48134;53.586;10.610;2022-07-10T08:29:43;101396.94;;;15.57;100.00
62150;BME280;48134;53.586;10.610;2022-07-10T08:32:11;101403.28;;;15.34;100.00
62150;BME280;48134;53.586;10.610;2022-07-10T08:34:40;101398.00;;;15.18;100.00
62150;BME280;48134;53.586;10.610;2022-07-10T08:37:13;101404.63;;;15.36;100.00
62150;BME280;48134;53.586;10.610;2022-07-10T08:39:52;101389.59;;;15.53;100.00
62150;BME280;48134;53.586;10.610;2022-07-10T08:42:26;101397.31;;;15.89;100.00
62150;BME280;48134;53.586;10.610;2022-07-10T08:45:00;101391.91;;;16.36;100.00
62150;BME280;48134;53.586;10.610;2022-07-10T08:47:34;101393.78;;;16.21;100.00
62150;BME280;48134;53.586;10.610;2022-07-10T08:50:16;101392.75;;;16.17;100.00
62150;BME280;48134;53.586;10.610;2022-07-10T08:52:52;101391.81;;;15.70;100.00
62150;BME280;48134;53.586;10.610;2022-07-10T08:55:27;101390.50;;;15.86;100.00
62150;BME280;48134;53.586;10.610;2022-07-10T08:58:00;101385.13;;;15.95;100.00
62150;BME280;48134;53.586;10.610;2022-07-10T09:00:37;101385.75;;;16.25;100.00
62150;BME280;48134;53.586;10.610;2022-07-10T09:03:10;101380.22;;;16.58;100.00
62150;BME280;48134;53.586;10.610;2022-07-10T09:05:44;101384.19;;;16.52;100.00
62150;BME280;48134;53.586;10.610;2022-07-10T09:08:23;101399.84;;;16.98;100.00
62150;BME280;48134;53.586;10.610;2022-07-10T09:11:14;101387.56;;;16.76;100.00
62150;BME280;48134;53.586;10.610;2022-07-10T09:13:51;101381.09;;;17.00;100.00
62150;BME280;48134;53.586;10.610;2022-07-10T09:16:27;101379.94;;;17.29;100.00
62150;BME280;48134;53.586;10.610;2022-07-10T09:19:15;101390.88;;;16.92;100.00
62150;BME280;48134;53.586;10.610;2022-07-10T09:21:50;101386.50;;;16.44;100.00
62150;BME280;48134;53.586;10.610;2022-07-10T09:24:19;101382.25;;;16.05;100.00
62150;BME280;48134;53.586;10.610;2022-07-10T09:26:58;101390.25;;;16.02;100.00
62150;BME280;48134;53.586;10.610;2022-07-10T09:29:50;101389.81;;;16.13;100.00
62150;BME280;48134;53.586;10.610;2022-07-10T09:32:35;101387.78;;;16.66;100.00
62150;BME280;48134;53.586;10.610;2022-07-10T09:35:10;101388.94;;;16.93;100.00
62150;BME280;48134;53.586;10.610;2022-07-10T09:38:01;101357.56;;;16.94;94.84
62150;BME280;48134;53.586;10.610;2022-07-10T09:40:30;101381.56;;;16.74;98.32
62150;BME280;48134;53.586;10.610;2022-07-10T09:43:03;101384.72;;;16.81;100.00
62150;BME280;48134;53.586;10.610;2022-07-10T09:45:36;101391.97;;;16.91;100.00
62150;BME280;48134;53.586;10.610;2022-07-10T09:48:06;101384.03;;;16.90;100.00
62150;BME280;48134;53.586;10.610;2022-07-10T09:50:35;101379.94;;;17.15;99.57
62150;BME280;48134;53.586;10.610;2022-07-10T09:53:05;101373.25;;;17.07;93.37
62150;BME280;48134;53.586;10.610;2022-07-10T09:55:39;101393.22;;;16.99;95.67
62150;BME280;48134;53.586;10.610;2022-07-10T09:58:09;101377.72;;;17.17;93.11
62150;BME280;48134;53.586;10.610;2022-07-10T10:00:42;101379.16;;;17.65;93.25
62150;BME280;48134;53.586;10.610;2022-07-10T10:03:20;101384.03;;;17.91;91.25
62150;BME280;48134;53.586;10.610;2022-07-10T10:05:54;101397.34;;;17.38;100.00
62150;BME280;48134;53.586;10.610;2022-07-10T10:08:29;101391.88;;;16.96;99.72
62150;BME280;48134;53.586;10.610;2022-07-10T10:11:04;101387.84;;;17.58;100.00
62150;BME280;48134;53.586;10.610;2022-07-10T10:13:35;101396.59;;;17.97;88.36
62150;BME280;48134;53.586;10.610;2022-07-10T10:16:09;101383.44;;;17.94;97.03
62150;BME280;48134;53.586;10.610;2022-07-10T10:18:44;101389.84;;;17.66;95.13
62150;BME280;48134;53.586;10.610;2022-07-10T10:21:30;101387.19;;;17.98;88.53
62150;BME280;48134;53.586;10.610;2022-07-10T10:24:04;101380.09;;;18.28;91.46
62150;BME280;48134;53.586;10.610;2022-07-10T10:26:33;101390.66;;;18.58;90.61
62150;BME280;48134;53.586;10.610;2022-07-10T10:29:06;101377.84;;;18.62;82.98
62150;BME280;48134;53.586;10.610;2022-07-10T10:31:41;101379.63;;;18.58;84.20
62150;BME280;48134;53.586;10.610;2022-07-10T10:34:12;101371.94;;;18.46;81.28
62150;BME280;48134;53.586;10.610;2022-07-10T10:36:48;101380.59;;;18.30;74.46
62150;BME280;48134;53.586;10.610;2022-07-10T10:39:18;101374.19;;;18.12;84.56
62150;BME280;48134;53.586;10.610;2022-07-10T10:41:52;101368.63;;;18.35;84.81
62150;BME280;48134;53.586;10.610;2022-07-10T10:44:27;101366.44;;;17.78;84.82
62150;BME280;48134;53.586;10.610;2022-07-10T10:47:07;101387.94;;;17.53;94.72
62150;BME280;48134;53.586;10.610;2022-07-10T10:49:49;101383.50;;;17.66;93.04
62150;BME280;48134;53.586;10.610;2022-07-10T10:52:23;101385.16;;;17.30;93.60
62150;BME280;48134;53.586;10.610;2022-07-10T10:55:07;101373.25;;;17.94;100.00
62150;BME280;48134;53.586;10.610;2022-07-10T10:57:41;101377.63;;;17.81;83.62
62150;BME280;48134;53.586;10.610;2022-07-10T11:00:30;101358.25;;;17.13;90.33
62150;BME280;48134;53.586;10.610;2022-07-10T11:03:16;101374.03;;;17.22;94.33
62150;BME280;48134;53.586;10.610;2022-07-10T11:05:47;101377.13;;;17.06;100.00
62150;BME280;48134;53.586;10.610;2022-07-10T11:08:38;101376.06;;;16.88;100.00
62150;BME280;48134;53.586;10.610;2022-07-10T11:11:38;101384.91;;;17.41;100.00
62150;BME280;48134;53.586;10.610;2022-07-10T11:14:14;101369.78;;;18.11;100.00
62150;BME280;48134;53.586;10.610;2022-07-10T11:16:46;101362.16;;;18.71;95.37
62150;BME280;48134;53.586;10.610;2022-07-10T11:19:24;101365.00;;;18.57;87.52
62150;BME280;48134;53.586;10.610;2022-07-10T11:22:03;101365.34;;;17.79;84.94
62150;BME280;48134;53.586;10.610;2022-07-10T11:24:48;101375.84;;;17.40;88.08
62150;BME280;48134;53.586;10.610;2022-07-10T11:27:32;101378.63;;;17.26;83.75
62150;BME280;48134;53.586;10.610;2022-07-10T11:30:07;101380.91;;;17.61;91.16
62150;BME280;48134;53.586;10.610;2022-07-10T11:32:41;101377.44;;;17.92;87.59
62150;BME280;48134;53.586;10.610;2022-07-10T11:35:15;101368.53;;;17.72;79.67
62150;BME280;48134;53.586;10.610;2022-07-10T11:37:51;101376.34;;;17.42;91.07
62150;BME280;48134;53.586;10.610;2022-07-10T11:40:25;101375.75;;;17.31;78.73
62150;BME280;48134;53.586;10.610;2022-07-10T11:42:59;101379.78;;;17.84;88.39
62150;BME280;48134;53.586;10.610;2022-07-10T11:45:36;101376.56;;;17.68;79.87
62150;BME280;48134;53.586;10.610;2022-07-10T11:48:05;101357.69;;;17.76;80.02
62150;BME280;48134;53.586;10.610;2022-07-10T11:50:37;101382.16;;;17.77;82.69
62150;BME280;48134;53.586;10.610;2022-07-10T11:53:07;101384.34;;;17.89;85.36
62150;BME280;48134;53.586;10.610;2022-07-10T11:55:40;101386.69;;;18.18;82.95
62150;BME280;48134;53.586;10.610;2022-07-10T11:58:14;101389.75;;;18.17;86.46
62150;BME280;48134;53.586;10.610;2022-07-10T12:00:58;101384.66;;;17.65;82.81
62150;BME280;48134;53.586;10.610;2022-07-10T12:03:33;101386.84;;;17.77;96.39
62150;BME280;48134;53.586;10.610;2022-07-10T12:06:03;101392.34;;;17.77;87.49
62150;BME280;48134;53.586;10.610;2022-07-10T12:08:45;101388.72;;;18.04;85.61
62150;BME280;48134;53.586;10.610;2022-07-10T12:11:14;101389.72;;;18.08;88.61
62150;BME280;48134;53.586;10.610;2022-07-10T12:13:49;101385.72;;;17.78;85.16
62150;BME280;48134;53.586;10.610;2022-07-10T12:16:22;101379.75;;;17.62;88.51
62150;BME280;48134;53.586;10.610;2022-07-10T12:18:51;101391.75;;;17.43;88.96
62150;BME280;48134;53.586;10.610;2022-07-10T12:21:20;101390.50;;;17.49;91.78
62150;BME280;48134;53.586;10.610;2022-07-10T12:23:50;101397.47;;;17.70;90.23
62150;BME280;48134;53.586;10.610;2022-07-10T12:26:18;101383.69;;;18.06;90.28
62150;BME280;48134;53.586;10.610;2022-07-10T12:28:54;101396.91;;;17.95;96.00
62150;BME280;48134;53.586;10.610;2022-07-10T12:31:29;101397.97;;;17.72;84.09
62150;BME280;48134;53.586;10.610;2022-07-10T12:34:05;101403.63;;;17.66;92.90
62150;BME280;48134;53.586;10.610;2022-07-10T12:36:45;101404.94;;;17.55;98.24
62150;BME280;48134;53.586;10.610;2022-07-10T12:39:22;101394.69;;;17.47;87.41
62150;BME280;48134;53.586;10.610;2022-07-10T12:41:55;101413.03;;;17.51;97.16
62150;BME280;48134;53.586;10.610;2022-07-10T12:44:33;101399.22;;;17.65;90.98
62150;BME280;48134;53.586;10.610;2022-07-10T12:47:08;101406.22;;;18.08;97.01
62150;BME280;48134;53.586;10.610;2022-07-10T12:49:52;101397.94;;;18.53;86.77
62150;BME280;48134;53.586;10.610;2022-07-10T12:52:26;101406.63;;;17.93;83.05
62150;BME280;48134;53.586;10.610;2022-07-10T12:55:11;101409.38;;;17.42;86.33
62150;BME280;48134;53.586;10.610;2022-07-10T12:57:51;101403.44;;;17.49;97.27
62150;BME280;48134;53.586;10.610;2022-07-10T13:00:21;101413.09;;;17.60;93.96
62150;BME280;48134;53.586;10.610;2022-07-10T13:02:56;101420.63;;;17.68;94.67
62150;BME280;48134;53.586;10.610;2022-07-10T13:05:26;101405.06;;;17.87;96.41